Cottonwood, CA (96022)

3:02 PM PST on February 05, 2015 (GMT -0800)
Lake California Airpark 68CA | Change Station
CLOSE
Current Station
Personal Weather Station
Location: Cottonwood, CA
Elevation: 597 ft
Nearby Weather Stations

Elev 597 ft 40.36 °N, 122.21 °W | Updated 8 seconds ago

Partly Cloudy
Partly Cloudy
56.1 °F
Feels Like 56.1 °F
N
3.8
Wind Variable Wind from SE
Gusts 4.5 mph

Today
High -- | Low -- °F
--% Chance of Precip.
Yesterday
High -- | Low -- °F
Precip. -- in
7:14 AM 5:32 PM
Waning Gibbous, 96% visible
Pressure 29.91 in
Visibility 6.0 miles
Clouds Overcast 2000 ft
Dew Point 51 °F
Humidity 83%
Rainfall 0.00 in
Snow Depth Not available.
UV 1 out of 12
Pollen 4.50 out of 12
Air Quality Not available.
Flu Activity Not available.
METAR KRDD 052253Z 35003KT 6SM HZ OVC020 14/09 A2991 RMK AO2 SLP127 T01390089

More Conditions Fewer Conditions

Pressure 29.91 in
Visibility 6.0 miles
Clouds Overcast 2000 ft
Dew Point 51 °F
Humidity 83%
Rainfall 0.00 in
Snow Depth Not available.
UV 1 out of 12
Pollen 4.50 out of 12
Air Quality Not available.
Flu Activity Not available.
METAR KRDD 052253Z 35003KT 6SM HZ OVC020 14/09 A2991 RMK AO2 SLP127 T01390089

More Conditions Fewer Conditions

10-Day Weather Forecast

×

Almanac

Astronomy

Feb. 05, 2015 Rise Set
Actual Time
Civil Twilight
Nautical Twilight
Astronomical Twilight
Moon
Length of Visible Light
Length of Day
Tomorrow will be .
, % of the Moon is Illuminated